Time,TemperatureF,DewpointF,PressureIn,WindDirection,WindDirectionDegrees,WindSpeedMPH,WindSpeedGustMPH,Humidity,HourlyPrecipIn,Conditions,Clouds,dailyrainin,SolarRadiationWatts/m^2,SoftwareType,DateUTC
2013-02-27 00:02:00,29.0,22.0,-100.00,NNE,17,7.0,13.0,74,0.00,,,0.00,1.000000,,2013-02-27 06:02:00,
2013-02-27 00:33:00,28.0,21.0,-100.00,North,8,7.0,16.0,76,0.00,,,0.00,1.000000,,2013-02-27 06:33:00,
2013-02-27 00:42:00,28.0,21.0,-100.00,North,8,7.0,16.0,76,0.00,,,0.00,1.000000,,2013-02-27 06:42:00,
2013-02-27 00:52:00,28.0,21.0,-100.00,North,8,7.0,16.0,76,0.00,,,0.00,1.000000,,2013-02-27 06:52:00,
2013-02-27 01:01:00,28.0,21.0,-100.00,North,8,7.0,16.0,76,0.00,,,0.00,1.000000,,2013-02-27 07:01:00,
2013-02-27 01:32:00,28.0,22.0,-100.00,NNE,18,8.0,14.0,77,0.00,,,0.00,1.000000,,2013-02-27 07:32:00,
2013-02-27 01:42:00,28.0,22.0,-100.00,NNE,18,8.0,14.0,77,0.00,,,0.00,1.000000,,2013-02-27 07:42:00,
2013-02-27 01:52:00,28.0,22.0,-100.00,NNE,18,8.0,14.0,77,0.00,,,0.00,1.000000,,2013-02-27 07:52:00,
2013-02-27 02:01:00,28.0,22.0,-100.00,NNE,18,8.0,14.0,77,0.00,,,0.00,1.000000,,2013-02-27 08:01:00,
2013-02-27 02:32:00,28.0,23.0,-100.00,North,8,8.0,14.0,81,0.00,,,0.00,1.000000,,2013-02-27 08:32:00,
2013-02-27 02:42:00,28.0,23.0,-100.00,North,8,8.0,14.0,81,0.00,,,0.00,1.000000,,2013-02-27 08:42:00,
2013-02-27 02:53:00,28.0,23.0,-100.00,North,8,8.0,14.0,81,0.00,,,0.00,1.000000,,2013-02-27 08:53:00,
2013-02-27 03:02:00,28.0,23.0,-100.00,North,8,8.0,14.0,81,0.00,,,0.00,1.000000,,2013-02-27 09:02:00,
2013-02-27 03:32:00,27.0,23.0,-100.00,North,8,7.0,15.0,84,0.00,,,0.00,1.000000,,2013-02-27 09:32:00,
2013-02-27 03:42:00,27.0,23.0,-100.00,North,8,7.0,15.0,84,0.00,,,0.00,1.000000,,2013-02-27 09:42:00,
2013-02-27 03:52:00,27.0,23.0,-100.00,North,8,7.0,15.0,84,0.00,,,0.00,1.000000,,2013-02-27 09:52:00,
2013-02-27 04:01:00,27.0,23.0,-100.00,North,8,7.0,15.0,84,0.00,,,0.00,1.000000,,2013-02-27 10:01:00,
2013-02-27 04:32:00,27.0,23.0,-100.00,North,8,5.0,12.0,85,0.00,,,0.00,1.000000,,2013-02-27 10:32:00,
2013-02-27 04:42:00,27.0,23.0,-100.00,North,8,5.0,12.0,85,0.00,,,0.00,1.000000,,2013-02-27 10:42:00,
2013-02-27 04:53:00,27.0,23.0,-100.00,North,8,5.0,12.0,85,0.00,,,0.00,1.000000,,2013-02-27 10:53:00,
2013-02-27 05:02:00,27.0,23.0,-100.00,North,8,5.0,12.0,85,0.00,,,0.00,1.000000,,2013-02-27 11:02:00,
2013-02-27 05:32:00,26.0,22.0,-100.00,North,352,6.0,10.0,85,0.00,,,0.00,1.000000,,2013-02-27 11:32:00,
2013-02-27 05:42:00,26.0,22.0,-100.00,North,352,6.0,10.0,85,0.00,,,0.00,1.000000,,2013-02-27 11:42:00,
2013-02-27 05:52:00,26.0,22.0,-100.00,North,352,6.0,10.0,85,0.00,,,0.00,1.000000,,2013-02-27 11:52:00,
2013-02-27 06:02:00,26.0,22.0,-100.00,North,352,6.0,10.0,85,0.00,,,0.00,1.000000,,2013-02-27 12:02:00,
2013-02-27 06:33:00,25.0,22.0,-100.00,North,353,5.0,9.0,88,0.00,,,-99.99,1.000000,,2013-02-27 12:33:00,
2013-02-27 06:42:00,25.0,22.0,-100.00,North,353,5.0,9.0,88,0.00,,,-99.99,1.000000,,2013-02-27 12:42:00,
2013-02-27 06:52:00,25.0,22.0,-100.00,North,353,5.0,9.0,88,0.00,,,-99.99,1.000000,,2013-02-27 12:52:00,
2013-02-27 07:02:00,25.0,22.0,-100.00,North,353,5.0,9.0,88,0.00,,,-99.99,1.000000,,2013-02-27 13:02:00,
2013-02-27 07:32:00,25.0,22.0,-100.00,North,352,7.0,11.0,87,0.00,,,0.00,3.000000,,2013-02-27 13:32:00,
2013-02-27 07:42:00,25.0,22.0,-100.00,North,352,7.0,11.0,87,0.00,,,0.00,3.000000,,2013-02-27 13:42:00,
2013-02-27 07:52:00,25.0,22.0,-100.00,North,352,7.0,11.0,87,0.00,,,0.00,3.000000,,2013-02-27 13:52:00,
2013-02-27 08:02:00,25.0,22.0,-100.00,North,352,7.0,11.0,87,0.00,,,0.00,3.000000,,2013-02-27 14:02:00,
2013-02-27 08:32:00,26.0,20.0,-100.00,North,350,7.0,12.0,79,0.00,,,0.00,82.000000,,2013-02-27 14:32:00,
2013-02-27 08:42:00,26.0,20.0,-100.00,North,350,7.0,12.0,79,0.00,,,0.00,82.000000,,2013-02-27 14:42:00,
2013-02-27 08:52:00,26.0,20.0,-100.00,North,350,7.0,12.0,79,0.00,,,0.00,82.000000,,2013-02-27 14:52:00,
2013-02-27 09:02:00,26.0,20.0,-100.00,North,350,7.0,12.0,79,0.00,,,0.00,82.000000,,2013-02-27 15:02:00,
2013-02-27 09:32:00,30.0,21.0,-100.00,NNW,344,7.0,12.0,69,0.00,,,0.00,272.000000,,2013-02-27 15:32:00,
2013-02-27 09:42:00,30.0,21.0,-100.00,NNW,344,7.0,12.0,69,0.00,,,0.00,272.000000,,2013-02-27 15:42:00,
2013-02-27 09:52:00,30.0,21.0,-100.00,NNW,344,7.0,12.0,69,0.00,,,0.00,272.000000,,2013-02-27 15:52:00,
2013-02-27 10:02:00,30.0,21.0,-100.00,NNW,344,7.0,12.0,69,0.00,,,0.00,272.000000,,2013-02-27 16:02:00,
2013-02-27 10:32:00,34.0,22.0,-100.00,NNW,346,9.0,15.0,61,0.00,,,0.00,409.000000,,2013-02-27 16:32:00,
2013-02-27 10:42:00,34.0,22.0,-100.00,NNW,346,9.0,15.0,61,0.00,,,0.00,409.000000,,2013-02-27 16:42:00,
2013-02-27 10:52:00,34.0,22.0,-100.00,NNW,346,9.0,15.0,61,0.00,,,0.00,409.000000,,2013-02-27 16:52:00,
2013-02-27 11:02:00,34.0,22.0,-100.00,NNW,346,9.0,15.0,61,0.00,,,0.00,409.000000,,2013-02-27 17:02:00,
2013-02-27 11:32:00,38.0,22.0,-100.00,NNW,343,10.0,17.0,53,0.00,,,0.00,519.000000,,2013-02-27 17:32:00,
2013-02-27 11:42:00,38.0,22.0,-100.00,NNW,343,10.0,17.0,53,0.00,,,0.00,519.000000,,2013-02-27 17:42:00,
2013-02-27 11:52:00,38.0,22.0,-100.00,NNW,343,10.0,17.0,53,0.00,,,0.00,519.000000,,2013-02-27 17:52:00,
2013-02-27 12:02:00,38.0,22.0,-100.00,NNW,343,10.0,17.0,53,0.00,,,0.00,519.000000,,2013-02-27 18:02:00,
2013-02-27 12:32:00,41.0,22.0,-100.00,North,357,10.0,19.0,46,0.00,,,0.00,625.000000,,2013-02-27 18:32:00,
2013-02-27 12:42:00,41.0,22.0,-100.00,North,357,10.0,19.0,46,0.00,,,0.00,625.000000,,2013-02-27 18:42:00,
2013-02-27 12:52:00,41.0,22.0,-100.00,North,357,10.0,19.0,46,0.00,,,0.00,625.000000,,2013-02-27 18:52:00,
2013-02-27 13:01:00,41.0,22.0,-100.00,North,357,10.0,19.0,46,0.00,,,0.00,625.000000,,2013-02-27 19:01:00,
2013-02-27 13:32:00,43.0,23.0,-100.00,NE,47,7.0,16.0,44,0.00,,,0.00,656.000000,,2013-02-27 19:32:00,
2013-02-27 13:42:00,43.0,23.0,-100.00,NE,47,7.0,16.0,44,0.00,,,0.00,656.000000,,2013-02-27 19:42:00,
2013-02-27 13:52:00,43.0,23.0,-100.00,NE,47,7.0,16.0,44,0.00,,,0.00,656.000000,,2013-02-27 19:52:00,
2013-02-27 14:01:00,43.0,23.0,-100.00,NE,47,7.0,16.0,44,0.00,,,0.00,656.000000,,2013-02-27 20:01:00,
2013-02-27 14:32:00,40.0,23.0,-100.00,ENE,67,11.0,17.0,51,0.00,,,-99.99,515.000000,,2013-02-27 20:32:00,
2013-02-27 14:42:00,40.0,23.0,-100.00,ENE,67,11.0,17.0,51,0.00,,,-99.99,515.000000,,2013-02-27 20:42:00,
2013-02-27 14:52:00,40.0,23.0,-100.00,ENE,67,11.0,17.0,51,0.00,,,-99.99,515.000000,,2013-02-27 20:52:00,
2013-02-27 15:02:00,40.0,23.0,-100.00,ENE,67,11.0,17.0,51,0.00,,,-99.99,515.000000,,2013-02-27 21:02:00,
2013-02-27 15:32:00,37.0,25.0,-100.00,ENE,73,12.0,18.0,61,0.00,,,-99.99,495.000000,,2013-02-27 21:32:00,
2013-02-27 15:42:00,37.0,25.0,-100.00,ENE,73,12.0,18.0,61,0.00,,,-99.99,495.000000,,2013-02-27 21:42:00,
2013-02-27 15:52:00,37.0,25.0,-100.00,ENE,73,12.0,18.0,61,0.00,,,-99.99,495.000000,,2013-02-27 21:52:00,
2013-02-27 16:01:00,37.0,25.0,-100.00,ENE,73,12.0,18.0,61,0.00,,,-99.99,495.000000,,2013-02-27 22:01:00,
2013-02-27 16:32:00,37.0,24.0,-100.00,NE,56,8.0,15.0,58,0.00,,,0.00,349.000000,,2013-02-27 22:32:00,
2013-02-27 16:42:00,37.0,24.0,-100.00,NE,56,8.0,15.0,58,0.00,,,0.00,349.000000,,2013-02-27 22:42:00,
2013-02-27 16:52:00,37.0,24.0,-100.00,NE,56,8.0,15.0,58,0.00,,,0.00,349.000000,,2013-02-27 22:52:00,
2013-02-27 17:01:00,37.0,24.0,-100.00,NE,56,8.0,15.0,58,0.00,,,0.00,349.000000,,2013-02-27 23:01:00,
2013-02-27 17:32:00,36.0,23.0,-100.00,NE,40,8.0,14.0,59,0.00,,,0.00,145.000000,,2013-02-27 23:32:00,
2013-02-27 17:42:00,36.0,23.0,-100.00,NE,40,8.0,14.0,59,0.00,,,0.00,145.000000,,2013-02-27 23:42:00,
2013-02-27 17:53:00,36.0,23.0,-100.00,NE,40,8.0,14.0,59,0.00,,,0.00,145.000000,,2013-02-27 23:53:00,
2013-02-27 18:02:00,36.0,23.0,-100.00,NE,40,8.0,14.0,59,0.00,,,0.00,145.000000,,2013-02-28 00:02:00,
2013-02-27 18:32:00,32.0,23.0,-100.00,NE,42,7.0,12.0,69,0.00,,,0.00,29.000000,,2013-02-28 00:32:00,
2013-02-27 18:42:00,32.0,23.0,-100.00,NE,42,7.0,12.0,69,0.00,,,0.00,29.000000,,2013-02-28 00:42:00,
2013-02-27 18:52:00,32.0,23.0,-100.00,NE,42,7.0,12.0,69,0.00,,,0.00,29.000000,,2013-02-28 00:52:00,
2013-02-27 19:01:00,32.0,23.0,-100.00,NE,42,7.0,12.0,69,0.00,,,0.00,29.000000,,2013-02-28 01:01:00,
2013-02-27 19:32:00,31.0,23.0,-100.00,NE,40,5.0,10.0,73,0.00,,,0.00,1.000000,,2013-02-28 01:32:00,
2013-02-27 19:42:00,31.0,23.0,-100.00,NE,40,5.0,10.0,73,0.00,,,0.00,1.000000,,2013-02-28 01:42:00,
2013-02-27 19:52:00,31.0,23.0,-100.00,NE,40,5.0,10.0,73,0.00,,,0.00,1.000000,,2013-02-28 01:52:00,
2013-02-27 20:01:00,31.0,23.0,-100.00,NE,40,5.0,10.0,73,0.00,,,0.00,1.000000,,2013-02-28 02:01:00,
2013-02-27 20:32:00,29.0,21.0,-100.00,NNE,28,5.0,8.0,73,0.00,,,0.00,1.000000,,2013-02-28 02:32:00,
2013-02-27 20:42:00,29.0,21.0,-100.00,NNE,28,5.0,8.0,73,0.00,,,0.00,1.000000,,2013-02-28 02:42:00,
2013-02-27 20:52:00,29.0,21.0,-100.00,NNE,28,5.0,8.0,73,0.00,,,0.00,1.000000,,2013-02-28 02:52:00,
2013-02-27 21:01:00,29.0,21.0,-100.00,NNE,28,5.0,8.0,73,0.00,,,0.00,1.000000,,2013-02-28 03:01:00,
2013-02-27 21:32:00,29.0,20.0,-100.00,NNE,13,7.0,11.0,68,0.00,,,0.00,1.000000,,2013-02-28 03:32:00,
2013-02-27 21:42:00,29.0,20.0,-100.00,NNE,13,7.0,11.0,68,0.00,,,0.00,1.000000,,2013-02-28 03:42:00,
2013-02-27 21:52:00,29.0,20.0,-100.00,NNE,13,7.0,11.0,68,0.00,,,0.00,1.000000,,2013-02-28 03:52:00,
2013-02-27 22:01:00,29.0,20.0,-100.00,NNE,13,7.0,11.0,68,0.00,,,0.00,1.000000,,2013-02-28 04:01:00,
2013-02-27 22:32:00,29.0,20.0,-100.00,NNW,346,5.0,9.0,68,0.00,,,0.00,1.000000,,2013-02-28 04:32:00,
2013-02-27 22:42:00,29.0,20.0,-100.00,NNW,346,5.0,9.0,68,0.00,,,0.00,1.000000,,2013-02-28 04:42:00,
2013-02-27 22:52:00,29.0,20.0,-100.00,NNW,346,5.0,9.0,68,0.00,,,0.00,1.000000,,2013-02-28 04:52:00,
2013-02-27 23:01:00,29.0,20.0,-100.00,NNW,346,5.0,9.0,68,0.00,,,0.00,1.000000,,2013-02-28 05:01:00,
2013-02-27 23:32:00,30.0,20.0,-100.00,North,349,4.0,10.0,67,0.00,,,0.00,1.000000,,2013-02-28 05:32:00,
2013-02-27 23:43:00,30.0,20.0,-100.00,North,349,4.0,10.0,67,0.00,,,0.00,1.000000,,2013-02-28 05:43:00,
2013-02-27 23:52:00,30.0,20.0,-100.00,North,349,4.0,10.0,67,0.00,,,0.00,1.000000,,2013-02-28 05:52:00,